Time;durP1;ratioP1;P1;durP2;ratioP2;P2;SDS_P1;SDS_P2;PMS_P1;PMS_P2;Temp;Humidity;BMP_temperature;BMP_pressure;BME280_temperature;BME280_humidity;BME280_pressure;Samples;Min_cycle;Max_cycle;Signal;HPM_P1;HPM_P2
2022/06/05 00:01:57;;;;;;;13.20;8.30;;;;;;;12.86;61.92;101713.34;4994788;28;20050;-53
2022/06/05 00:04:36;;;;;;;16.27;9.07;;;;;;;12.86;62.16;101717.69;4994844;28;20046;-51
2022/06/05 00:07:10;;;;;;;14.85;9.10;;;;;;;12.82;62.18;101716.84;4994659;28;20057;-50
2022/06/05 00:09:46;;;;;;;13.68;8.95;;;;;;;12.80;62.15;101722.91;4994525;28;20042;-50
2022/06/05 00:12:13;;;;;;;;;;;;;;;12.69;61.95;101724.66;4994681;28;20069;-54
2022/06/05 00:14:42;;;;;;;12.52;8.05;;;;;;;12.69;62.14;101719.47;4994295;28;19944;-50
2022/06/05 00:17:11;;;;;;;13.68;9.10;;;;;;;12.68;62.17;101715.13;4994060;28;20050;-52
2022/06/05 00:19:38;;;;;;;13.98;8.38;;;;;;;12.67;61.94;101716.00;4994426;28;20057;-51
2022/06/05 00:22:09;;;;;;;13.38;7.75;;;;;;;12.66;61.96;101714.28;4994570;28;20081;-51
2022/06/05 00:24:36;;;;;;;13.57;9.30;;;;;;;12.64;62.10;101717.75;4994461;28;20112;-51
2022/06/05 00:27:14;;;;;;;13.05;8.85;;;;;;;12.66;62.04;101719.47;4994192;28;20053;-51
2022/06/05 00:29:53;;;;;;;13.27;8.57;;;;;;;12.63;61.86;101721.22;4994341;28;20081;-50
2022/06/05 00:32:30;;;;;;;13.93;9.52;;;;;;;12.61;62.14;101722.94;4994270;28;20050;-50
2022/06/05 00:34:56;;;;;;;13.55;9.55;;;;;;;12.60;61.85;101721.22;4994013;28;20046;-53
2022/06/05 00:37:33;;;;;;;15.15;8.05;;;;;;;12.60;61.83;101722.94;4994138;28;20061;-50
2022/06/05 00:40:26;;;;;;;12.43;8.00;;;;;;;12.57;61.69;101725.56;4994267;28;20054;-51
2022/06/05 00:43:01;;;;;;;15.20;9.50;;;;;;;12.53;61.78;101729.88;4993725;28;20054;-50
2022/06/05 00:45:29;;;;;;;13.20;8.33;;;;;;;12.52;61.93;101727.28;4999921;28;20046;-53
2022/06/05 00:47:56;;;;;;;15.20;9.57;;;;;;;12.51;62.10;101730.75;5013442;28;20297;-54
2022/06/05 00:50:27;;;;;;;17.40;10.07;;;;;;;12.50;62.13;101729.03;4996988;28;20061;-54
2022/06/05 00:52:59;;;;;;;17.60;10.15;;;;;;;12.51;62.06;101725.56;4993394;28;20054;-51
2022/06/05 00:55:28;;;;;;;18.08;10.18;;;;;;;12.50;62.32;101729.03;4974510;28;20047;-51
2022/06/05 00:57:57;;;;;;;16.70;9.43;;;;;;;12.49;62.10;101730.75;4974354;28;20050;-53
2022/06/05 01:00:31;;;;;;;16.58;8.57;;;;;;;12.46;62.20;101725.53;4974410;28;20065;-50
2022/06/05 01:02:59;;;;;;;18.23;9.65;;;;;;;12.44;62.36;101719.47;4989394;28;20375;-51
2022/06/05 01:05:27;;;;;;;15.27;9.05;;;;;;;12.44;62.54;101714.25;4993449;28;20049;-51
2022/06/05 01:07:56;;;;;;;16.13;10.80;;;;;;;12.44;62.62;101718.59;4993686;28;20058;-51
2022/06/05 01:10:27;;;;;;;16.17;10.05;;;;;;;12.43;62.67;101720.34;4993426;28;20474;-53
2022/06/05 01:13:03;;;;;;;14.25;8.40;;;;;;;12.42;62.46;101713.41;4992518;28;20066;-52
2022/06/05 01:15:39;;;;;;;12.02;8.20;;;;;;;12.40;62.82;101722.94;4993645;28;20050;-53
2022/06/05 01:18:18;;;;;;;12.85;8.20;;;;;;;12.35;62.69;101719.47;4993492;28;20050;-54
2022/06/05 01:21:05;;;;;;;13.38;8.68;;;;;;;12.33;63.03;101710.81;4993248;28;20054;-51
2022/06/05 01:23:48;;;;;;;14.40;8.32;;;;;;;12.32;62.72;101717.75;4993454;28;20065;-50
2022/06/05 01:26:31;;;;;;;13.60;7.47;;;;;;;12.29;62.70;101719.47;4993427;28;20064;-51
2022/06/05 01:29:02;;;;;;;11.85;6.90;;;;;;;12.28;62.78;101715.13;4993130;28;20088;-52
2022/06/05 01:31:32;;;;;;;12.23;7.45;;;;;;;12.28;62.61;101712.53;4992919;28;20046;-54
2022/06/05 01:34:11;;;;;;;13.95;8.15;;;;;;;12.26;62.84;101714.28;4992843;28;20061;-51
2022/06/05 01:36:49;;;;;;;11.23;7.22;;;;;;;12.24;62.75;101710.81;4993042;28;20086;-52
2022/06/05 01:39:20;;;;;;;14.82;8.05;;;;;;;12.21;62.88;101708.22;4993021;28;20078;-50
2022/06/05 01:41:51;;;;;;;11.38;6.93;;;;;;;12.18;62.93;101710.81;4993296;28;20058;-52
2022/06/05 01:44:21;;;;;;;11.93;7.45;;;;;;;12.15;62.75;101705.59;4992759;28;20058;-51
2022/06/05 01:46:49;;;;;;;12.27;7.93;;;;;;;12.14;62.94;101701.28;4992805;28;20157;-51
2022/06/05 01:49:20;;;;;;;11.82;7.05;;;;;;;12.12;63.14;101701.28;4993184;28;20050;-54
2022/06/05 01:51:56;;;;;;;11.32;7.95;;;;;;;12.12;63.22;101700.41;4992834;28;20050;-53
2022/06/05 01:54:27;;;;;;;12.40;7.70;;;;;;;12.10;63.27;101694.34;4995271;28;20064;-52
2022/06/05 01:57:01;;;;;;;11.13;7.15;;;;;;;12.09;63.37;101695.22;4996615;28;20054;-53
2022/06/05 01:59:37;;;;;;;15.43;7.30;;;;;;;12.07;63.03;101696.94;4996723;28;20050;-50
2022/06/05 02:02:08;;;;;;;11.32;7.45;;;;;;;12.05;63.26;101698.69;4996570;28;20050;-52
2022/06/05 02:04:38;;;;;;;11.00;7.78;;;;;;;12.06;63.36;101695.22;4996821;28;20060;-52
2022/06/05 02:07:10;;;;;;;11.82;7.45;;;;;;;12.06;63.38;101698.69;4997208;28;20062;-51
2022/06/05 02:09:43;;;;;;;14.23;8.80;;;;;;;12.05;63.26;101693.47;4996515;28;20050;-50
2022/06/05 02:12:11;;;;;;;12.80;7.57;;;;;;;12.04;63.55;101702.13;4996575;28;20054;-50
2022/06/05 02:14:42;;;;;;;11.63;7.72;;;;;;;12.04;63.19;101696.94;4996596;28;20061;-51
2022/06/05 02:17:11;;;;;;;12.52;7.70;;;;;;;12.00;63.39;101691.75;4997048;28;20064;-51
2022/06/05 02:19:38;;;;;;;11.15;6.72;;;;;;;12.00;63.35;101701.28;4996906;28;20046;-50
2022/06/05 02:22:11;;;;;;;11.68;7.63;;;;;;;11.99;63.65;101697.81;4997198;28;20053;-51
2022/06/05 02:24:39;;;;;;;11.27;6.82;;;;;;;11.95;63.28;101698.63;4996888;28;20050;-51
2022/06/05 02:27:07;;;;;;;11.30;7.35;;;;;;;11.93;63.95;101695.16;4996699;28;20387;-50
2022/06/05 02:29:36;;;;;;;10.98;7.68;;;;;;;11.95;63.87;101710.75;4996880;28;20057;-51
2022/06/05 02:32:22;;;;;;;10.75;6.93;;;;;;;11.95;63.83;101705.56;4996620;28;20050;-51
2022/06/05 02:35:00;;;;;;;11.95;7.00;;;;;;;11.95;63.98;101705.56;4996239;28;20082;-54
2022/06/05 02:37:51;;;;;;;10.55;7.10;;;;;;;11.95;63.71;101703.84;4996845;28;20054;-50
2022/06/05 02:40:26;;;;;;;12.90;7.25;;;;;;;11.95;63.69;101698.63;4996687;28;20062;-50
2022/06/05 02:42:58;;;;;;;12.60;7.38;;;;;;;11.95;63.82;101698.63;4996187;28;20470;-50
2022/06/05 02:45:31;;;;;;;9.50;6.15;;;;;;;11.95;63.38;101698.63;4996360;28;20057;-51
2022/06/05 02:48:09;;;;;;;14.65;7.45;;;;;;;11.95;63.98;101698.63;4996427;28;20060;-54
2022/06/05 02:50:46;;;;;;;11.68;6.05;;;;;;;11.97;63.82;101702.13;4996416;28;20082;-51
2022/06/05 02:53:14;;;;;;;11.05;6.28;;;;;;;11.96;63.58;101710.75;4996337;28;20058;-50
2022/06/05 02:55:41;;;;;;;9.18;6.60;;;;;;;11.96;63.48;101705.56;4996439;28;20042;-52
2022/06/05 02:58:09;;;;;;;10.95;6.25;;;;;;;12.00;63.84;101707.34;4996418;28;20148;-51
2022/06/05 03:00:39;;;;;;;11.02;7.13;;;;;;;12.05;63.76;101704.75;4996215;28;20173;-51
2022/06/05 03:05:51;;;;;;;11.38;6.45;;;;;;;12.19;63.84;101717.75;4994484;28;20587;-51
2022/06/05 03:08:19;;;;;;;10.90;6.40;;;;;;;12.25;63.93;101717.75;4996093;28;20042;-50
2022/06/05 03:10:46;;;;;;;9.73;6.00;;;;;;;12.33;63.58;101718.59;4995743;28;20047;-53
2022/06/05 03:13:15;;;;;;;11.55;6.75;;;;;;;12.42;63.55;101726.41;4996234;28;20058;-53
2022/06/05 03:15:43;;;;;;;12.60;6.72;;;;;;;12.50;63.57;101714.28;4996283;28;20064;-50
2022/06/05 03:18:12;;;;;;;9.15;6.30;;;;;;;12.59;63.32;101719.47;4993770;28;20482;-50
2022/06/05 03:20:40;;;;;;;8.02;5.40;;;;;;;12.71;63.30;101722.94;4993664;28;20149;-52
2022/06/05 03:23:09;;;;;;;10.70;5.68;;;;;;;12.83;63.20;101720.31;4994134;28;20046;-50
2022/06/05 03:25:38;;;;;;;8.90;5.22;;;;;;;12.94;62.71;101723.75;4993782;28;20076;-49
2022/06/05 03:28:06;;;;;;;10.45;6.20;;;;;;;13.02;62.68;101724.63;4993772;28;20054;-49
2022/06/05 03:30:37;;;;;;;9.02;5.75;;;;;;;13.14;62.43;101732.38;4993584;28;20550;-51
2022/06/05 03:33:07;;;;;;;9.02;5.40;;;;;;;13.23;62.32;101729.78;4993889;28;20046;-52
2022/06/05 03:35:37;;;;;;;8.25;5.35;;;;;;;13.41;62.36;101748.81;4993621;28;20038;-52
2022/06/05 03:38:05;;;;;;;8.27;5.38;;;;;;;13.55;61.99;101742.69;4993687;28;20064;-51
2022/06/05 03:40:33;;;;;;;8.43;5.63;;;;;;;13.73;61.90;101735.66;4993667;28;20065;-52
2022/06/05 03:43:01;;;;;;;11.30;6.75;;;;;;;13.93;61.61;101745.94;4993655;28;20069;-53
2022/06/05 03:45:29;;;;;;;11.57;6.32;;;;;;;14.10;61.29;101746.75;4993167;28;20599;-49
2022/06/05 03:47:56;;;;;;;8.35;5.13;;;;;;;14.28;61.02;101740.50;4993262;28;20065;-50
2022/06/05 03:50:26;;;;;;;10.07;5.78;;;;;;;14.45;60.38;101744.75;4991328;28;20058;-50
2022/06/05 03:52:53;;;;;;;9.70;5.60;;;;;;;14.65;60.16;101738.50;4991855;28;20076;-52
2022/06/05 03:55:26;;;;;;;9.95;5.85;;;;;;;14.86;60.02;101740.91;4991667;28;20479;-51
2022/06/05 03:57:56;;;;;;;10.00;5.75;;;;;;;15.08;59.47;101737.19;4991978;28;20054;-49
2022/06/05 04:00:24;;;;;;;8.43;5.65;;;;;;;15.30;59.48;101742.19;4992352;28;20141;-51
2022/06/05 04:02:51;;;;;;;8.93;5.50;;;;;;;15.50;58.74;101737.56;4992082;28;20382;-49
2022/06/05 04:05:21;;;;;;;9.07;4.95;;;;;;;15.71;58.57;101739.97;4992825;28;20053;-49
2022/06/05 04:07:51;;;;;;;8.07;5.30;;;;;;;15.96;58.23;101745.69;4992684;28;20050;-51
2022/06/05 04:10:22;;;;;;;7.57;5.13;;;;;;;16.22;57.88;101742.72;4992442;28;20061;-50
2022/06/05 04:12:49;;;;;;;8.25;4.82;;;;;;;16.45;57.33;101744.94;4991994;28;20058;-53
2022/06/05 04:15:17;;;;;;;7.70;4.90;;;;;;;16.65;56.82;101739.41;4992710;28;20054;-50
2022/06/05 04:17:45;;;;;;;7.82;4.80;;;;;;;16.85;56.10;101750.41;4992347;28;20058;-52
2022/06/05 04:20:13;;;;;;;7.28;4.82;;;;;;;17.07;55.48;101739.50;4992598;28;20054;-50
2022/06/05 04:22:42;;;;;;;7.50;4.70;;;;;;;17.26;55.09;101740.91;4992555;28;20050;-50
2022/06/05 04:25:18;;;;;;;8.57;4.78;;;;;;;17.47;54.53;101742.22;4991301;28;20050;-50
2022/06/05 04:27:46;;;;;;;8.43;4.72;;;;;;;17.69;54.16;101745.25;4992640;28;20046;-50
2022/06/05 04:30:13;;;;;;;6.45;4.30;;;;;;;17.88;53.45;101747.47;4988603;28;20050;-49
2022/06/05 04:32:41;;;;;;;5.60;3.88;;;;;;;18.10;52.96;101753.06;4989238;28;20506;-50
2022/06/05 04:35:09;;;;;;;5.43;4.03;;;;;;;18.34;52.40;101751.66;4980717;28;20069;-53
2022/06/05 04:37:37;;;;;;;6.00;3.80;;;;;;;18.58;51.59;101752.78;4992634;28;20069;-53
2022/06/05 04:40:06;;;;;;;4.65;3.35;;;;;;;18.84;51.16;101758.28;4992581;28;20094;-52
2022/06/05 04:42:36;;;;;;;5.50;3.70;;;;;;;19.08;50.68;101755.91;4992468;28;20058;-52
2022/06/05 04:45:05;;;;;;;6.03;3.08;;;;;;;19.33;50.01;101767.47;4992384;28;20069;-54
2022/06/05 04:47:32;;;;;;;5.85;3.20;;;;;;;19.60;49.39;101760.56;4992374;28;20042;-51
2022/06/05 04:49:59;;;;;;;5.15;3.08;;;;;;;19.78;49.16;101769.72;4992364;28;20047;-50
2022/06/05 04:52:27;;;;;;;3.90;2.80;;;;;;;20.02;48.63;101768.09;4991463;28;20065;-50
2022/06/05 04:54:54;;;;;;;4.50;2.58;;;;;;;20.27;47.66;101765.53;4991114;28;20054;-52
2022/06/05 04:57:20;;;;;;;5.20;3.05;;;;;;;20.45;47.41;101762.34;4991705;28;20042;-52
2022/06/05 04:59:49;;;;;;;4.53;3.10;;;;;;;20.68;46.87;101754.53;4991947;28;20050;-51
2022/06/05 05:02:18;;;;;;;4.03;2.25;;;;;;;20.91;46.48;101756.38;4991442;28;20058;-50
2022/06/05 05:04:47;;;;;;;2.80;2.05;;;;;;;21.11;45.57;101751.25;4991529;28;20679;-50
2022/06/05 05:07:17;;;;;;;2.90;2.20;;;;;;;21.26;44.78;101752.50;4991901;28;20050;-50
2022/06/05 05:09:45;;;;;;;4.53;2.92;;;;;;;21.41;44.85;101759.88;4992295;28;20133;-53
2022/06/05 05:12:16;;;;;;;3.55;2.30;;;;;;;21.59;44.10;101755.66;4991048;28;20062;-53
2022/06/05 05:14:44;;;;;;;4.20;2.33;;;;;;;21.75;43.81;101761.22;4991665;28;20062;-50
2022/06/05 05:17:13;;;;;;;4.47;2.33;;;;;;;21.95;43.55;101753.41;4991629;28;20448;-51
2022/06/05 05:19:40;;;;;;;4.78;2.80;;;;;;;22.19;42.67;101756.00;4991844;28;20058;-52
2022/06/05 05:22:08;;;;;;;3.35;2.53;;;;;;;22.31;42.43;101755.50;4991881;28;20054;-50
2022/06/05 05:24:37;;;;;;;4.85;2.72;;;;;;;22.39;42.07;101753.44;4991612;28;20380;-51
2022/06/05 05:27:03;;;;;;;3.83;2.28;;;;;;;22.52;41.64;101744.06;4991695;28;20069;-51
2022/06/05 05:29:31;;;;;;;4.45;2.53;;;;;;;22.68;41.29;101755.69;4990534;28;20054;-53
2022/06/05 05:31:58;;;;;;;3.53;2.20;;;;;;;22.80;40.72;101751.69;4991185;28;20060;-52
2022/06/05 05:34:27;;;;;;;2.78;1.98;;;;;;;22.92;40.75;101751.19;4991758;28;20054;-53
2022/06/05 05:36:54;;;;;;;4.15;2.55;;;;;;;23.02;40.49;101746.34;4991402;28;20106;-51
2022/06/05 05:42:05;;;;;;;3.13;2.00;;;;;;;23.30;39.95;101748.59;4991594;28;20860;-53
2022/06/05 05:44:36;;;;;;;3.17;2.15;;;;;;;23.38;39.33;101740.31;4991662;28;20121;-53
2022/06/05 05:47:06;;;;;;;2.25;1.75;;;;;;;23.47;38.96;101751.38;4991604;28;20069;-50
2022/06/05 05:49:36;;;;;;;3.33;1.60;;;;;;;23.64;38.65;101747.97;4991046;28;20471;-53
2022/06/05 05:52:03;;;;;;;3.42;1.80;;;;;;;23.79;38.70;101749.88;4987555;28;20081;-52
2022/06/05 05:54:31;;;;;;;3.28;1.98;;;;;;;23.92;38.59;101758.94;4991733;28;20058;-53
2022/06/05 05:56:57;;;;;;;4.35;2.00;;;;;;;24.08;37.76;101750.28;4991355;28;20050;-50
2022/06/05 05:59:25;;;;;;;4.50;2.05;;;;;;;24.09;37.48;101754.66;4991690;28;20058;-53
2022/06/05 06:01:53;;;;;;;2.25;1.65;;;;;;;24.11;37.89;101752.78;4991626;28;20057;-50
2022/06/05 06:04:20;;;;;;;2.63;1.73;;;;;;;24.26;37.45;101752.03;4991670;28;20061;-52
2022/06/05 06:06:49;;;;;;;3.10;2.05;;;;;;;24.40;36.66;101748.72;4991423;28;20065;-53
2022/06/05 06:09:19;;;;;;;4.03;1.73;;;;;;;24.57;35.97;101751.41;4990549;28;20074;-54
2022/06/05 06:11:46;;;;;;;3.53;2.05;;;;;;;24.77;35.81;101748.56;4990765;28;20468;-52
2022/06/05 06:14:13;;;;;;;3.17;1.63;;;;;;;24.91;35.50;101747.84;4991420;28;20046;-52
2022/06/05 06:16:40;;;;;;;2.25;1.40;;;;;;;25.05;35.35;101737.44;4990911;28;20051;-51
2022/06/05 06:19:08;;;;;;;2.78;1.50;;;;;;;25.21;35.16;101739.25;4991390;28;20050;-51
2022/06/05 06:21:34;;;;;;;3.17;1.60;;;;;;;25.34;35.23;101748.28;4991194;28;20061;-50
2022/06/05 06:24:03;;;;;;;2.97;1.90;;;;;;;25.41;34.72;101754.97;4990933;28;20058;-51
2022/06/05 06:26:30;;;;;;;4.07;1.80;;;;;;;25.38;34.71;101744.50;4991150;28;20081;-51
2022/06/05 06:28:56;;;;;;;3.58;1.70;;;;;;;25.40;34.92;101748.78;4991134;28;20058;-51
2022/06/05 06:31:23;;;;;;;4.65;1.40;;;;;;;25.47;34.53;101751.97;4991091;28;20058;-52
2022/06/05 06:33:53;;;;;;;1.92;1.50;;;;;;;25.56;34.50;101743.53;4990547;28;20543;-54
2022/06/05 06:36:21;;;;;;;3.97;1.70;;;;;;;25.68;34.71;101742.88;4990717;28;20054;-54
2022/06/05 06:38:48;;;;;;;3.00;1.55;;;;;;;25.77;34.30;101752.13;4991110;28;20064;-51
2022/06/05 06:41:20;;;;;;;4.50;1.85;;;;;;;25.76;34.45;101745.09;4994889;28;20065;-52
2022/06/05 06:43:49;;;;;;;3.22;1.90;;;;;;;25.82;34.56;101743.91;4994650;28;20430;-52
2022/06/05 06:46:18;;;;;;;2.75;1.35;;;;;;;25.95;33.96;101747.56;4994574;28;20050;-53
2022/06/05 06:48:47;;;;;;;1.73;1.27;;;;;;;26.00;34.11;101746.34;4994382;28;20057;-50
2022/06/05 06:51:17;;;;;;;2.60;1.50;;;;;;;26.19;33.98;101748.84;4994256;28;20522;-53
2022/06/05 06:53:45;;;;;;;2.55;1.55;;;;;;;26.34;33.43;101752.44;4994494;28;20058;-51
2022/06/05 06:56:15;;;;;;;3.42;1.60;;;;;;;26.35;33.68;101744.38;4994482;28;20046;-50
2022/06/05 06:58:45;;;;;;;4.18;1.60;;;;;;;26.35;33.36;101743.50;4994464;28;20054;-51
2022/06/05 07:01:13;;;;;;;3.65;1.52;;;;;;;26.27;33.70;101749.25;4994001;28;20054;-54
2022/06/05 07:03:41;;;;;;;2.88;1.75;;;;;;;26.31;33.51;101748.13;4993947;28;20081;-52
2022/06/05 07:06:14;;;;;;;2.22;1.42;;;;;;;26.42;33.47;101735.09;4994151;28;20049;-52
2022/06/05 07:08:44;;;;;;;3.53;2.13;;;;;;;26.48;33.43;101743.66;4993202;28;20054;-53
2022/06/05 07:11:14;;;;;;;3.65;2.10;;;;;;;26.63;33.21;101748.09;4993240;28;20656;-52
2022/06/05 07:13:43;;;;;;;4.72;1.60;;;;;;;26.81;33.20;101741.66;4994150;28;20054;-52
2022/06/05 07:16:12;;;;;;;2.85;1.85;;;;;;;26.86;32.77;101744.88;4994040;28;20054;-51
2022/06/05 07:18:41;;;;;;;4.35;1.73;;;;;;;26.85;32.43;101737.84;4993791;28;20054;-50
2022/06/05 07:21:10;;;;;;;3.45;1.90;;;;;;;26.95;32.83;101744.31;4994124;28;20061;-51
2022/06/05 07:23:38;;;;;;;5.03;1.85;;;;;;;26.99;32.69;101739.69;4994033;28;20057;-53
2022/06/05 07:26:08;;;;;;;3.45;1.98;;;;;;;26.95;32.84;101733.69;4993999;28;20057;-54
2022/06/05 07:28:35;;;;;;;3.03;1.90;;;;;;;26.89;32.85;101734.06;4995158;28;20038;-52
2022/06/05 07:31:07;;;;;;;3.60;2.00;;;;;;;27.01;32.96;101727.16;5004362;28;20065;-51
2022/06/05 07:33:35;;;;;;;3.55;1.80;;;;;;;27.24;32.57;101731.94;5003019;28;20046;-53
2022/06/05 07:36:05;;;;;;;4.35;1.70;;;;;;;27.40;32.17;101733.63;5002599;28;20057;-51
2022/06/05 07:38:33;;;;;;;3.95;1.83;;;;;;;27.47;31.90;101733.13;4995695;28;20058;-54
2022/06/05 07:40:59;;;;;;;4.63;1.90;;;;;;;27.52;31.95;101733.69;4993265;28;20524;-53
2022/06/05 07:43:26;;;;;;;3.05;1.67;;;;;;;27.68;32.06;101732.78;4993036;28;20065;-51
2022/06/05 07:45:52;;;;;;;3.03;1.63;;;;;;;27.77;32.10;101724.19;4996474;28;20462;-50
2022/06/05 07:48:20;;;;;;;5.82;1.92;;;;;;;27.90;31.88;101723.28;4999673;28;20042;-52
2022/06/05 07:56:11;;;;;;;3.45;1.70;;;;;;;28.15;31.15;101722.53;4959716;28;20050;-52
2022/06/05 07:58:38;;;;;;;2.80;1.80;;;;;;;28.00;31.42;101717.34;4992534;28;20058;-53
2022/06/05 08:01:07;;;;;;;3.60;1.50;;;;;;;27.90;31.69;101717.09;4992742;28;20549;-51
2022/06/05 08:03:35;;;;;;;4.50;1.83;;;;;;;27.89;31.71;101721.56;4993253;28;20054;-52
2022/06/05 08:06:03;;;;;;;2.88;1.70;;;;;;;27.81;31.82;101723.03;4993104;28;20403;-52
2022/06/05 08:08:30;;;;;;;3.75;2.10;;;;;;;27.78;31.58;101717.91;4998368;28;20046;-53
2022/06/05 08:11:02;;;;;;;9.95;2.05;;;;;;;27.79;31.83;101717.78;5000145;28;20054;-53
2022/06/05 08:13:29;;;;;;;2.45;1.40;;;;;;;27.83;31.89;101723.78;4998470;28;20068;-52
2022/06/05 08:15:56;;;;;;;8.40;1.90;;;;;;;27.91;31.57;101726.78;5002344;28;20042;-54
2022/06/05 08:18:23;;;;;;;2.60;1.50;;;;;;;28.08;31.23;101731.00;4998969;28;20053;-52
2022/06/05 08:20:59;;;;;;;3.10;1.80;;;;;;;28.21;30.77;101722.13;4994205;28;20442;-50
2022/06/05 08:23:27;;;;;;;2.40;1.77;;;;;;;28.16;31.02;101726.91;4988419;28;20042;-52
2022/06/05 08:25:54;;;;;;;2.70;1.95;;;;;;;28.18;31.19;101725.00;4985352;28;20046;-50
2022/06/05 08:28:23;;;;;;;3.63;1.98;;;;;;;28.22;31.08;101717.63;4986199;28;20353;-51
2022/06/05 08:30:50;;;;;;;2.20;1.55;;;;;;;28.26;30.86;101720.03;4986238;28;20058;-53
2022/06/05 08:33:17;;;;;;;2.75;1.67;;;;;;;28.36;30.52;101714.06;4993220;28;20046;-50
2022/06/05 08:35:45;;;;;;;2.25;1.70;;;;;;;28.41;30.57;101717.28;4993499;28;20543;-53
2022/06/05 08:44:03;;;;;;;2.33;1.42;;;;;;;28.49;30.76;101715.78;4994170;28;20061;-53
2022/06/05 08:46:36;;;;;;;2.70;1.77;;;;;;;28.49;30.61;101715.78;4987245;28;20070;-52
2022/06/05 08:49:07;;;;;;;4.25;1.45;;;;;;;28.47;31.35;101716.84;4993612;28;20416;-53
2022/06/05 08:51:48;;;;;;;2.88;1.65;;;;;;;28.82;30.34;101711.78;4998861;28;20045;-53
2022/06/05 08:54:24;;;;;;;3.38;1.75;;;;;;;29.32;29.73;101716.25;4994973;28;20405;-53
2022/06/05 08:57:00;;;;;;;1.98;1.15;;;;;;;29.50;29.56;101714.94;4996582;28;20046;-51
2022/06/05 08:59:30;;;;;;;1.65;1.25;;;;;;;29.41;29.83;101707.59;4999503;28;20073;-50
2022/06/05 09:02:03;;;;;;;2.85;1.63;;;;;;;29.29;29.69;101705.78;4999702;28;20386;-52
2022/06/05 09:04:51;;;;;;;2.50;1.40;;;;;;;29.06;28.71;101698.56;5003322;28;20057;-51
2022/06/05 09:07:22;;;;;;;36.15;3.92;;;;;;;28.83;29.83;101698.34;4998475;28;20467;-50
2022/06/05 09:09:56;;;;;;;2.80;1.23;;;;;;;28.65;30.28;101699.63;4995159;28;20050;-53
2022/06/05 09:12:29;;;;;;;3.55;1.20;;;;;;;28.64;30.94;101692.56;4989384;28;20062;-51
2022/06/05 09:15:05;;;;;;;2.17;1.20;;;;;;;28.66;29.53;101701.31;4980281;28;20050;-50
2022/06/05 09:17:33;;;;;;;1.63;0.90;;;;;;;28.46;29.57;101704.47;4990062;28;20131;-53
2022/06/05 09:19:59;;;;;;;1.77;0.75;;;;;;;28.22;29.41;101697.16;4993996;28;20082;-53
2022/06/05 09:22:36;;;;;;;2.90;1.10;;;;;;;28.05;29.73;101700.09;4987626;28;20082;-54
2022/06/05 09:25:29;;;;;;;1.80;0.98;;;;;;;28.01;29.66;101695.91;4988646;28;20054;-51
2022/06/05 09:28:08;;;;;;;2.05;0.90;;;;;;;28.14;29.89;101694.16;4987812;28;20089;-51
2022/06/05 09:30:43;;;;;;;1.77;0.98;;;;;;;28.30;30.30;101687.81;4991565;28;20080;-50
2022/06/05 09:33:17;;;;;;;1.35;1.10;;;;;;;28.45;29.97;101682.31;5010176;28;20064;-53
2022/06/05 09:35:48;;;;;;;1.80;1.10;;;;;;;28.55;30.17;101679.84;5001187;28;20061;-51
2022/06/05 09:38:22;;;;;;;1.80;1.05;;;;;;;28.64;30.24;101675.72;4992125;28;20053;-50
2022/06/05 09:41:05;;;;;;;2.33;1.23;;;;;;;28.75;29.93;101679.34;4991831;28;20108;-52
2022/06/05 09:43:54;;;;;;;1.42;1.08;;;;;;;28.71;29.50;101698.34;4992095;28;20050;-50
2022/06/05 09:46:43;;;;;;;2.97;1.60;;;;;;;28.49;29.73;101693.59;4993185;28;20058;-50
2022/06/05 09:49:16;;;;;;;2.42;1.40;;;;;;;28.32;30.47;101688.56;4992687;28;20042;-54
2022/06/05 09:51:42;;;;;;;2.00;1.10;;;;;;;28.24;30.88;101687.28;4992558;28;20466;-51
2022/06/05 09:54:19;;;;;;;2.67;1.30;;;;;;;28.10;30.68;101689.16;4992554;28;20430;-50
2022/06/05 09:59:49;;;;;;;1.70;1.20;;;;;;;28.05;30.87;101677.91;4992861;28;20140;-50
2022/06/05 10:02:20;;;;;;;1.70;1.00;;;;;;;28.13;30.44;101686.28;4993536;28;20174;-50
2022/06/05 10:04:47;;;;;;;1.38;1.02;;;;;;;28.08;30.50;101691.03;4993188;28;20097;-50
2022/06/05 10:07:21;;;;;;;1.60;1.08;;;;;;;28.11;30.74;101683.72;4992917;28;20049;-53
2022/06/05 10:09:49;;;;;;;3.25;1.30;;;;;;;28.25;30.71;101685.47;4993553;28;20054;-54
2022/06/05 10:12:24;;;;;;;2.15;1.23;;;;;;;28.28;31.07;101674.59;4992748;28;20062;-50
2022/06/05 10:14:55;;;;;;;2.70;1.58;;;;;;;28.28;31.06;101672.78;4995133;28;20069;-50
2022/06/05 10:17:39;;;;;;;3.45;1.60;;;;;;;28.17;31.23;101672.63;4997188;28;20073;-50
2022/06/05 10:20:23;;;;;;;2.28;1.40;;;;;;;28.00;31.87;101669.38;4997251;28;20050;-53
2022/06/05 10:22:56;;;;;;;3.05;1.27;;;;;;;27.96;31.84;101668.72;4996963;28;20134;-54
2022/06/05 10:25:28;;;;;;;2.22;1.40;;;;;;;27.98;32.15;101666.81;4997155;28;20050;-54
2022/06/05 10:28:00;;;;;;;2.17;1.40;;;;;;;27.98;31.69;101666.81;4996615;28;20053;-54
2022/06/05 10:30:33;;;;;;;2.25;1.30;;;;;;;27.90;31.48;101664.66;4996770;28;20473;-52
2022/06/05 10:33:04;;;;;;;3.20;1.27;;;;;;;27.71;31.32;101668.66;4996996;28;20050;-51
2022/06/05 10:35:44;;;;;;;2.08;1.30;;;;;;;27.48;31.62;101657.63;4996876;28;20065;-50
2022/06/05 10:38:33;;;;;;;2.25;1.25;;;;;;;27.45;31.88;101652.50;4996848;28;20047;-50
2022/06/05 10:41:05;;;;;;;2.08;1.35;;;;;;;27.48;31.34;101652.28;4977354;28;20062;-52
2022/06/05 10:43:34;;;;;;;1.50;1.13;;;;;;;27.46;30.99;101656.88;4976950;28;20445;-53
2022/06/05 10:46:03;;;;;;;2.20;1.42;;;;;;;27.40;31.11;101651.94;4992677;28;20058;-50
2022/06/05 10:48:45;;;;;;;2.20;1.33;;;;;;;27.38;31.29;101656.50;4996526;28;20066;-50
2022/06/05 10:51:20;;;;;;;1.67;1.08;;;;;;;27.28;31.18;101650.06;4996416;28;20062;-54
2022/06/05 10:53:52;;;;;;;1.60;1.30;;;;;;;27.19;31.88;101655.97;4996249;28;20077;-54
2022/06/05 10:56:29;;;;;;;1.70;1.30;;;;;;;27.01;32.35;101648.19;4996338;28;20141;-51
2022/06/05 10:59:05;;;;;;;2.35;1.33;;;;;;;26.99;32.80;101644.78;4996085;28;20061;-50
2022/06/05 11:01:46;;;;;;;3.03;1.60;;;;;;;27.07;32.57;101643.47;4995734;28;20050;-54
2022/06/05 11:04:24;;;;;;;2.25;1.40;;;;;;;27.11;32.48;101652.97;4996041;28;20538;-53
2022/06/05 11:06:57;;;;;;;1.90;1.45;;;;;;;27.09;32.27;101654.88;4984940;28;20475;-53
2022/06/05 11:09:39;;;;;;;3.38;1.67;;;;;;;27.05;32.44;101648.84;4996303;28;20054;-54
2022/06/05 11:15:09;;;;;;;2.47;1.63;;;;;;;26.85;33.37;101647.41;4995594;28;20057;-53
2022/06/05 11:17:46;;;;;;;2.47;1.58;;;;;;;26.71;33.74;101634.13;4996083;28;20129;-52
2022/06/05 11:20:16;;;;;;;2.33;1.55;;;;;;;26.54;33.93;101637.81;4995562;28;20050;-54
2022/06/05 11:22:52;;;;;;;5.97;1.40;;;;;;;26.38;33.99;101627.25;4995519;28;20731;-51
2022/06/05 11:25:25;;;;;;;2.40;1.52;;;;;;;26.40;34.10;101630.66;4994705;28;20648;-54
2022/06/05 11:28:01;;;;;;;3.60;1.60;;;;;;;26.44;34.64;101633.97;4994762;28;20426;-50
2022/06/05 11:30:42;;;;;;;3.45;2.08;;;;;;;26.36;34.23;101637.09;4995427;28;20064;-52
2022/06/05 11:33:17;;;;;;;2.92;1.60;;;;;;;26.28;34.34;101626.06;4995674;28;20054;-53
2022/06/05 11:36:01;;;;;;;1.80;1.30;;;;;;;26.17;35.08;101617.88;4995756;28;20065;-54
2022/06/05 11:38:40;;;;;;;9.00;2.08;;;;;;;26.07;35.36;101624.69;4995576;28;20054;-53
2022/06/05 11:41:20;;;;;;;1.85;1.58;;;;;;;25.90;35.12;101620.34;4995383;28;20396;-50
2022/06/05 11:43:52;;;;;;;3.15;1.70;;;;;;;25.72;35.87;101619.63;4995496;28;20129;-53
2022/06/05 11:46:26;;;;;;;3.45;1.73;;;;;;;25.54;35.99;101633.91;4995225;28;20134;-50
2022/06/05 11:49:05;;;;;;;3.55;1.75;;;;;;;25.24;36.32;101622.34;4995278;28;20046;-50
2022/06/05 11:51:37;;;;;;;2.72;1.60;;;;;;;25.06;36.48;101617.13;4987307;28;20050;-51
2022/06/05 11:54:14;;;;;;;18.25;2.33;;;;;;;25.05;36.02;101611.91;4975849;28;20520;-53
2022/06/05 11:56:54;;;;;;;2.22;1.30;;;;;;;24.92;36.98;101611.66;4983090;28;20061;-49
2022/06/05 11:59:33;;;;;;;3.42;1.23;;;;;;;24.93;36.14;101600.13;4990339;28;20054;-50
2022/06/05 12:02:22;;;;;;;2.50;1.30;;;;;;;24.86;35.93;101609.34;4994710;28;20507;-54
2022/06/05 12:04:56;;;;;;;1.75;1.38;;;;;;;24.60;35.71;101610.75;4994945;28;20142;-53